Time;durP1;ratioP1;P1;durP2;ratioP2;P2;SDS_P1;SDS_P2;PMS_P1;PMS_P2;Temp;Humidity;BMP_temperature;BMP_pressure;BME280_temperature;BME280_humidity;BME280_pressure;Samples;Min_cycle;Max_cycle;Signal;HPM_P1;HPM_P2
2022/04/22 00:01:42;;;;;;;13.32;12.40;;;4.50;99.90;;;;;;5148830;27;20558;-62
2022/04/22 00:04:20;;;;;;;13.45;12.35;;;4.60;99.90;;;;;;5151673;27;20614;-61
2022/04/22 00:06:58;;;;;;;14.30;13.35;;;4.70;99.90;;;;;;5116149;27;20831;-62
2022/04/22 00:09:36;;;;;;;14.00;12.80;;;4.80;99.90;;;;;;5156771;27;20816;-62
2022/04/22 00:12:15;;;;;;;12.48;11.68;;;5.10;99.90;;;;;;5143891;27;21163;-61
2022/04/22 00:14:53;;;;;;;12.68;11.77;;;5.30;99.90;;;;;;5139718;27;21066;-61
2022/04/22 00:17:31;;;;;;;12.40;11.50;;;5.50;99.90;;;;;;5155062;27;20529;-61
2022/04/22 00:20:11;;;;;;;11.88;11.00;;;5.60;99.90;;;;;;5160315;27;20520;-62
2022/04/22 00:22:49;;;;;;;12.15;11.35;;;5.70;99.90;;;;;;5161409;27;20670;-61
2022/04/22 00:25:28;;;;;;;12.32;11.43;;;5.60;99.90;;;;;;5160549;27;20534;-61
2022/04/22 00:28:06;;;;;;;12.13;11.27;;;5.50;99.90;;;;;;5161002;27;20537;-61
2022/04/22 00:30:47;;;;;;;11.18;10.27;;;5.40;99.90;;;;;;5156179;27;20560;-61
2022/04/22 00:33:25;;;;;;;11.18;10.32;;;5.20;99.90;;;;;;5161103;27;20644;-61
2022/04/22 00:36:04;;;;;;;12.75;11.80;;;5.00;99.90;;;;;;5136388;27;21041;-62
2022/04/22 00:38:43;;;;;;;12.00;11.00;;;4.90;99.90;;;;;;5136901;27;20544;-61
2022/04/22 00:41:22;;;;;;;11.70;10.90;;;4.70;99.90;;;;;;5151006;27;20813;-63
2022/04/22 00:44:00;;;;;;;11.15;10.35;;;4.60;99.90;;;;;;5160460;27;20666;-62
2022/04/22 00:46:38;;;;;;;11.30;10.50;;;4.50;99.90;;;;;;5160750;27;20675;-62
2022/04/22 00:49:16;;;;;;;12.00;11.20;;;4.40;99.90;;;;;;5160118;27;21060;-62
2022/04/22 00:51:55;;;;;;;12.85;11.95;;;4.30;99.90;;;;;;5146718;27;20555;-61
2022/04/22 00:54:33;;;;;;;11.43;10.60;;;4.50;99.90;;;;;;5116153;27;20544;-61
2022/04/22 00:57:13;;;;;;;12.20;11.20;;;4.60;99.90;;;;;;5160371;27;20640;-62
2022/04/22 00:59:53;;;;;;;11.25;10.43;;;4.60;99.90;;;;;;5136091;27;21156;-62
2022/04/22 01:02:32;;;;;;;11.93;11.02;;;4.60;99.90;;;;;;5141488;27;20618;-62
2022/04/22 01:11:04;;;;;;;11.10;10.25;;;4.50;99.90;;;;;;5153132;27;20543;-62
2022/04/22 01:13:43;;;;;;;12.07;11.18;;;4.50;99.90;;;;;;5160900;27;21135;-61
2022/04/22 01:16:23;;;;;;;11.55;10.75;;;4.40;99.90;;;;;;5115568;27;20671;-62
2022/04/22 01:19:02;;;;;;;11.73;10.88;;;4.40;99.90;;;;;;5136683;27;20544;-62
2022/04/22 01:21:40;;;;;;;10.98;10.18;;;4.40;99.90;;;;;;5148697;27;20622;-61
2022/04/22 01:24:18;;;;;;;12.00;11.10;;;4.30;99.90;;;;;;5160884;27;20546;-61
2022/04/22 01:26:58;;;;;;;11.60;10.70;;;4.30;99.90;;;;;;5156882;27;21099;-62
2022/04/22 01:29:36;;;;;;;11.25;10.48;;;4.20;99.90;;;;;;5160120;27;20520;-61
2022/04/22 01:32:14;;;;;;;11.07;10.27;;;4.30;99.90;;;;;;5143916;27;20557;-61
2022/04/22 01:34:52;;;;;;;10.85;10.13;;;4.30;99.90;;;;;;5154253;27;20896;-61
2022/04/22 01:37:32;;;;;;;10.90;10.15;;;4.30;99.90;;;;;;5148940;27;20632;-61
2022/04/22 01:40:12;;;;;;;10.52;9.73;;;4.30;99.90;;;;;;5159727;27;20550;-61
2022/04/22 01:42:50;;;;;;;11.48;10.65;;;4.30;99.90;;;;;;5160432;27;21018;-61
2022/04/22 01:45:29;;;;;;;10.95;10.15;;;4.20;99.90;;;;;;5140067;27;20596;-61
2022/04/22 01:48:09;;;;;;;11.05;10.25;;;4.20;99.90;;;;;;5116039;27;21034;-61
2022/04/22 01:50:47;;;;;;;10.95;10.15;;;4.40;99.90;;;;;;5156061;27;20614;-62
2022/04/22 01:53:25;;;;;;;10.73;10.02;;;4.50;99.90;;;;;;5115616;27;20534;-62
2022/04/22 01:56:03;;;;;;;10.95;10.10;;;4.40;99.90;;;;;;5160201;27;20938;-62
2022/04/22 01:58:42;;;;;;;10.40;9.70;;;4.40;99.90;;;;;;5160763;27;20531;-62
2022/04/22 02:01:20;;;;;;;9.95;9.20;;;4.50;99.90;;;;;;5151084;27;20641;-61
2022/04/22 02:03:58;;;;;;;10.13;9.43;;;4.40;99.90;;;;;;5160819;27;20987;-61
2022/04/22 02:06:36;;;;;;;10.23;9.43;;;4.40;99.90;;;;;;5160329;27;20545;-61
2022/04/22 02:09:14;;;;;;;10.20;9.50;;;4.30;99.90;;;;;;5160239;27;21066;-62
2022/04/22 02:11:53;;;;;;;9.95;9.15;;;4.30;99.90;;;;;;5147441;27;20551;-62
2022/04/22 02:14:31;;;;;;;11.52;10.73;;;4.30;99.90;;;;;;5160661;27;20550;-62
2022/04/22 02:17:09;;;;;;;10.02;9.32;;;4.30;99.90;;;;;;5160204;27;21031;-61
2022/04/22 02:19:47;;;;;;;11.32;10.52;;;4.30;99.90;;;;;;5115551;27;20971;-61
2022/04/22 02:22:25;;;;;;;10.80;10.00;;;4.40;99.90;;;;;;5130725;27;20568;-61
2022/04/22 02:25:04;;;;;;;10.57;9.88;;;4.40;99.90;;;;;;5161331;27;20545;-61
2022/04/22 02:30:39;;;;;;;10.80;10.00;;;4.40;99.90;;;;;;5160472;27;20538;-61
2022/04/22 02:33:17;;;;;;;10.95;10.15;;;4.50;99.90;;;;;;5160869;27;20605;-62
2022/04/22 02:35:56;;;;;;;10.18;9.38;;;4.50;99.90;;;;;;5160575;27;20550;-61
2022/04/22 02:38:34;;;;;;;9.43;8.73;;;4.50;99.90;;;;;;5160636;27;20714;-61
2022/04/22 02:47:06;;;;;;;10.18;9.48;;;4.30;99.90;;;;;;5160783;27;20624;-61
2022/04/22 02:49:45;;;;;;;10.35;9.45;;;4.30;99.90;;;;;;5159985;27;20601;-62
2022/04/22 02:52:24;;;;;;;10.60;9.82;;;4.30;99.90;;;;;;5122080;27;21088;-61
2022/04/22 02:55:02;;;;;;;10.88;9.77;;;4.20;99.90;;;;;;5119028;27;21057;-61
2022/04/22 02:57:43;;;;;;;10.50;9.70;;;4.10;99.90;;;;;;5160905;27;20587;-61
2022/04/22 03:00:22;;;;;;;10.55;9.65;;;4.00;99.90;;;;;;5157195;27;20614;-61
2022/04/22 03:03:00;;;;;;;10.88;10.18;;;4.00;99.90;;;;;;5161011;27;20532;-61
2022/04/22 03:05:38;;;;;;;10.80;9.82;;;3.90;99.90;;;;;;5160396;27;21105;-61
2022/04/22 03:08:18;;;;;;;9.95;9.25;;;3.90;99.90;;;;;;5148841;27;20633;-61
2022/04/22 03:10:56;;;;;;;11.07;10.18;;;3.70;99.90;;;;;;5097043;27;21225;-62
2022/04/22 03:13:34;;;;;;;10.48;9.68;;;3.60;99.90;;;;;;5153191;27;20610;-61
2022/04/22 03:16:12;;;;;;;11.18;10.48;;;3.60;99.90;;;;;;5158909;27;20537;-62
2022/04/22 03:18:51;;;;;;;10.55;9.80;;;3.60;99.90;;;;;;5116217;27;20534;-61
2022/04/22 03:21:29;;;;;;;11.43;10.52;;;3.50;99.90;;;;;;5149939;27;20561;-61
2022/04/22 03:24:07;;;;;;;10.80;10.00;;;3.50;99.90;;;;;;5160608;27;20536;-61
2022/04/22 03:26:47;;;;;;;10.15;9.45;;;3.60;99.90;;;;;;5155510;27;20617;-61
2022/04/22 03:29:26;;;;;;;10.48;9.73;;;3.60;99.90;;;;;;5113718;27;20625;-62
2022/04/22 03:32:06;;;;;;;10.15;9.38;;;3.50;99.90;;;;;;5130778;27;20564;-61
2022/04/22 03:34:45;;;;;;;10.88;10.18;;;3.40;99.90;;;;;;5157115;27;20535;-61
2022/04/22 03:37:23;;;;;;;10.65;9.95;;;3.40;99.90;;;;;;5159893;27;20516;-62
2022/04/22 03:40:01;;;;;;;11.13;10.32;;;3.20;99.90;;;;;;5159727;27;20971;-62
2022/04/22 03:42:40;;;;;;;10.38;9.68;;;3.10;99.90;;;;;;5139442;27;21063;-61
2022/04/22 03:45:21;;;;;;;11.13;10.32;;;3.20;99.90;;;;;;5157691;27;20553;-62
2022/04/22 03:47:59;;;;;;;12.93;12.02;;;3.30;99.90;;;;;;5140043;27;20618;-62
2022/04/22 03:50:39;;;;;;;12.23;11.43;;;3.50;99.90;;;;;;5160389;27;20633;-62
2022/04/22 03:53:17;;;;;;;11.50;10.70;;;3.70;99.90;;;;;;5161430;27;20905;-61
2022/04/22 03:58:10;;;;;;;11.55;10.57;;;4.00;99.90;;;;;;5160967;27;20549;-62
2022/04/22 03:58:54;;;;;;;11.63;10.77;;;4.10;99.90;;;;;;5145633;27;20577;-61
2022/04/22 04:01:33;;;;;;;10.40;9.70;;;4.30;99.90;;;;;;5141376;27;20547;-61
2022/04/22 04:04:11;;;;;;;11.18;10.27;;;4.40;99.90;;;;;;5146736;27;20531;-61
2022/04/22 04:06:49;;;;;;;10.88;10.18;;;4.60;99.90;;;;;;5159464;27;20674;-61
2022/04/22 04:18:15;;;;;;;11.18;10.45;;;5.60;99.90;;;;;;5157293;27;20963;-61
2022/04/22 04:23:49;;;;;;;11.90;11.02;;;5.80;99.90;;;;;;5160542;27;20555;-61
2022/04/22 04:26:27;;;;;;;11.65;10.65;;;5.80;99.90;;;;;;5160661;27;20818;-61
2022/04/22 04:29:05;;;;;;;11.88;11.02;;;5.80;99.90;;;;;;5160400;27;20855;-61
2022/04/22 04:31:43;;;;;;;12.15;11.35;;;5.80;99.90;;;;;;5148868;27;20563;-61
2022/04/22 04:34:22;;;;;;;11.25;10.32;;;5.80;99.90;;;;;;5149030;27;20961;-61
2022/04/22 04:37:00;;;;;;;11.73;10.93;;;6.00;99.90;;;;;;5114648;27;20620;-61
2022/04/22 04:39:38;;;;;;;11.88;11.07;;;6.00;99.90;;;;;;5159540;27;20690;-61
2022/04/22 04:42:16;;;;;;;11.77;10.98;;;6.10;99.90;;;;;;5144125;27;20622;-61
2022/04/22 04:44:55;;;;;;;12.85;11.95;;;6.20;99.90;;;;;;5157105;27;20613;-60
2022/04/22 04:47:40;;;;;;;11.93;11.13;;;6.30;99.90;;;;;;5115864;27;20625;-61
2022/04/22 04:50:19;;;;;;;11.38;10.57;;;6.40;99.90;;;;;;5159583;27;20604;-61
2022/04/22 04:52:57;;;;;;;11.80;11.00;;;6.50;99.90;;;;;;5161300;27;20532;-61
2022/04/22 04:55:36;;;;;;;12.35;11.20;;;6.60;99.90;;;;;;5146940;27;20602;-60
2022/04/22 04:58:15;;;;;;;12.35;11.55;;;6.90;99.90;;;;;;5153283;27;20538;-60
2022/04/22 05:00:54;;;;;;;11.90;11.00;;;7.00;99.90;;;;;;5155248;27;20613;-60
2022/04/22 05:03:32;;;;;;;11.02;10.27;;;7.00;99.90;;;;;;5160338;27;20538;-61
2022/04/22 05:06:20;;;;;;;13.40;12.50;;;7.10;99.90;;;;;;5145759;27;20606;-60
2022/04/22 05:09:00;;;;;;;11.90;10.95;;;7.10;99.90;;;;;;5159894;27;20528;-60
2022/04/22 05:11:38;;;;;;;11.27;10.48;;;7.10;99.90;;;;;;5147950;27;20607;-60
2022/04/22 05:14:16;;;;;;;11.18;10.40;;;7.20;99.90;;;;;;5157016;27;20648;-60
2022/04/22 05:16:55;;;;;;;13.07;12.23;;;7.20;99.90;;;;;;5138741;27;20604;-61
2022/04/22 05:19:34;;;;;;;12.65;11.60;;;7.20;99.90;;;;;;5154711;27;20626;-60
2022/04/22 05:22:12;;;;;;;11.80;11.00;;;7.20;99.90;;;;;;5143299;27;21001;-60
2022/04/22 05:24:51;;;;;;;10.73;10.02;;;7.30;99.90;;;;;;5159778;27;20909;-60
2022/04/22 05:27:29;;;;;;;12.13;11.23;;;7.30;99.90;;;;;;5159364;27;20534;-60
2022/04/22 05:33:05;;;;;;;11.50;10.60;;;7.50;99.90;;;;;;5148073;27;20535;-60
2022/04/22 05:35:44;;;;;;;12.35;11.45;;;7.70;99.90;;;;;;5115000;27;20540;-60
2022/04/22 05:38:24;;;;;;;12.45;11.55;;;7.70;99.90;;;;;;5130783;27;20683;-60
2022/04/22 05:41:03;;;;;;;11.63;10.55;;;7.70;99.90;;;;;;5152643;27;20979;-60
2022/04/22 05:43:42;;;;;;;12.70;11.80;;;7.80;99.90;;;;;;5101171;27;20660;-60
2022/04/22 05:46:20;;;;;;;12.45;11.35;;;7.80;99.90;;;;;;5145746;27;21081;-58
2022/04/22 05:48:58;;;;;;;11.85;11.05;;;7.90;99.90;;;;;;5159937;27;20917;-61
2022/04/22 05:51:37;;;;;;;12.20;11.25;;;8.10;99.90;;;;;;5094284;27;20687;-60
2022/04/22 05:54:15;;;;;;;11.50;10.70;;;8.30;99.90;;;;;;5160122;27;20520;-60
2022/04/22 05:56:53;;;;;;;11.38;10.57;;;8.40;99.90;;;;;;5158087;27;20666;-61
2022/04/22 05:59:31;;;;;;;11.77;10.98;;;8.50;99.90;;;;;;5114756;27;20535;-61
2022/04/22 06:02:10;;;;;;;11.75;10.75;;;8.50;99.90;;;;;;5127264;27;20597;-61
2022/04/22 06:04:48;;;;;;;13.13;10.73;;;8.60;99.90;;;;;;5161289;27;20553;-60
2022/04/22 06:07:26;;;;;;;11.95;11.10;;;8.70;99.90;;;;;;5140171;27;20525;-60
2022/04/22 06:13:02;;;;;;;11.15;10.35;;;8.80;99.90;;;;;;5178853;22;20594;-60
2022/04/22 06:15:42;;;;;;;11.07;10.27;;;8.80;99.90;;;;;;5115567;27;20613;-58
2022/04/22 06:18:20;;;;;;;10.98;10.13;;;8.90;99.90;;;;;;5114045;27;20556;-60
2022/04/22 06:21:00;;;;;;;12.40;11.60;;;8.90;99.90;;;;;;5092186;27;20492;-59
2022/04/22 06:23:38;;;;;;;11.82;10.90;;;9.00;99.90;;;;;;5104357;27;20633;-59
2022/04/22 06:26:16;;;;;;;12.07;11.27;;;9.10;99.90;;;;;;5160380;27;20538;-60
2022/04/22 06:28:54;;;;;;;11.00;10.20;;;9.20;99.90;;;;;;5115567;27;20656;-60
2022/04/22 06:31:35;;;;;;;11.63;10.82;;;9.30;99.90;;;;;;5140759;27;21177;-59
2022/04/22 06:34:14;;;;;;;11.25;10.45;;;9.30;99.90;;;;;;5098028;27;20555;-60
2022/04/22 06:36:53;;;;;;;11.43;10.10;;;9.40;99.90;;;;;;5114787;27;20558;-60
2022/04/22 06:45:46;;;;;;;11.10;10.30;;;9.50;99.90;;;;;;5117045;27;20538;-59
2022/04/22 06:45:47;;;;;;;11.73;10.82;;;9.60;99.90;;;;;;5113947;27;20552;-60
2022/04/22 06:48:30;;;;;;;10.93;10.13;;;9.50;99.90;;;;;;5142312;27;21063;-60
2022/04/22 06:51:28;;;;;;;11.82;11.10;;;9.60;99.90;;;;;;5117745;27;20985;-60
2022/04/22 06:54:07;;;;;;;11.07;10.35;;;9.60;99.90;;;;;;5100042;27;21080;-59
2022/04/22 06:56:48;;;;;;;10.70;9.90;;;9.60;99.90;;;;;;5115112;27;20562;-59
2022/04/22 06:59:26;;;;;;;13.63;12.68;;;9.70;99.90;;;;;;5155250;27;20661;-59
2022/04/22 07:02:08;;;;;;;10.77;10.02;;;9.90;99.90;;;;;;5153060;27;20555;-58
2022/04/22 07:04:46;;;;;;;10.85;10.07;;;9.90;99.90;;;;;;5140571;27;20968;-60
2022/04/22 07:07:24;;;;;;;11.55;10.75;;;10.00;99.90;;;;;;5156795;27;20624;-58
2022/04/22 07:10:03;;;;;;;11.30;10.50;;;10.00;99.90;;;;;;5146886;27;20625;-59
2022/04/22 07:12:42;;;;;;;10.57;9.88;;;10.20;99.90;;;;;;5115640;27;20303;-60
2022/04/22 07:15:21;;;;;;;11.73;10.90;;;10.30;99.90;;;;;;5115779;27;20946;-59
2022/04/22 07:17:59;;;;;;;10.85;9.95;;;10.50;99.90;;;;;;5139187;27;20574;-60
2022/04/22 07:20:39;;;;;;;11.48;10.63;;;10.60;99.90;;;;;;5151406;27;20590;-59
2022/04/22 07:23:19;;;;;;;11.35;10.45;;;10.70;99.90;;;;;;5107152;27;20565;-60
2022/04/22 07:25:59;;;;;;;10.98;10.18;;;10.60;99.90;;;;;;5143854;27;21024;-59
2022/04/22 07:28:39;;;;;;;11.07;10.18;;;10.60;99.90;;;;;;5098235;27;20534;-59
2022/04/22 07:31:19;;;;;;;10.88;10.07;;;10.70;99.90;;;;;;5114638;27;20656;-58
2022/04/22 07:33:58;;;;;;;11.40;9.75;;;10.70;99.90;;;;;;5130317;27;20620;-59
2022/04/22 07:36:37;;;;;;;12.68;11.77;;;10.60;99.90;;;;;;5143893;27;20514;-58
2022/04/22 07:39:16;;;;;;;11.57;10.77;;;10.70;99.90;;;;;;5148570;27;20610;-58
2022/04/22 07:41:56;;;;;;;12.13;11.32;;;10.90;99.90;;;;;;5159578;27;20519;-58
2022/04/22 07:47:33;;;;;;;11.82;10.90;;;11.30;99.90;;;;;;5155532;27;20676;-59
2022/04/22 07:50:14;;;;;;;11.63;10.82;;;11.60;99.90;;;;;;5153861;27;20543;-59
2022/04/22 07:52:52;;;;;;;11.45;10.55;;;11.70;99.90;;;;;;5146840;27;20297;-58
2022/04/22 07:55:30;;;;;;;11.77;10.98;;;11.40;99.90;;;;;;5115596;27;20633;-59
2022/04/22 07:58:10;;;;;;;12.32;11.43;;;11.50;99.90;;;;;;5114730;27;20687;-59
2022/04/22 08:00:48;;;;;;;11.43;10.52;;;11.50;99.90;;;;;;5144809;27;20285;-58
2022/04/22 08:03:27;;;;;;;10.65;9.93;;;11.40;99.90;;;;;;5106523;27;20638;-59
2022/04/22 08:06:07;;;;;;;11.27;10.38;;;11.30;99.90;;;;;;5116234;27;21105;-59
2022/04/22 08:08:51;;;;;;;12.05;11.00;;;11.30;99.90;;;;;;5115946;27;20640;-59
2022/04/22 08:11:30;;;;;;;10.55;9.77;;;11.60;99.90;;;;;;5098823;27;20522;-59
2022/04/22 08:14:12;;;;;;;11.30;10.50;;;11.70;99.90;;;;;;5100175;27;20371;-59
2022/04/22 08:16:51;;;;;;;10.68;9.80;;;11.50;99.90;;;;;;5156986;27;20531;-59
2022/04/22 08:19:29;;;;;;;10.95;10.00;;;11.40;99.90;;;;;;5115118;27;20625;-59
2022/04/22 08:22:07;;;;;;;9.95;9.05;;;11.40;99.90;;;;;;5157287;27;21066;-59
2022/04/22 08:24:45;;;;;;;10.32;9.52;;;11.40;99.90;;;;;;5136825;27;20552;-59
2022/04/22 08:27:24;;;;;;;8.55;7.95;;;11.70;99.90;;;;;;5149816;27;20522;-59
2022/04/22 08:30:04;;;;;;;9.68;8.90;;;12.10;99.90;;;;;;5114962;27;20675;-58
2022/04/22 08:32:43;;;;;;;8.52;7.82;;;12.40;99.90;;;;;;5157413;27;21184;-59
2022/04/22 08:35:22;;;;;;;8.52;7.93;;;12.50;99.90;;;;;;5115843;27;20613;-59
2022/04/22 08:38:01;;;;;;;8.25;7.75;;;12.50;99.90;;;;;;5115787;27;20544;-59
2022/04/22 08:40:40;;;;;;;7.97;7.45;;;12.50;99.90;;;;;;5140021;27;20666;-59
2022/04/22 08:43:20;;;;;;;7.35;6.75;;;12.40;99.90;;;;;;5146483;27;20536;-59
2022/04/22 08:45:59;;;;;;;7.28;6.57;;;12.30;99.90;;;;;;5115877;27;20624;-59
2022/04/22 08:51:33;;;;;;;6.30;5.80;;;12.50;99.90;;;;;;5152361;27;20980;-59
2022/04/22 08:54:14;;;;;;;8.57;7.75;;;12.70;99.90;;;;;;5100444;27;20735;-59
2022/04/22 08:56:53;;;;;;;6.57;6.10;;;12.80;99.90;;;;;;5160422;27;20612;-58
2022/04/22 08:59:33;;;;;;;8.48;7.93;;;12.80;99.90;;;;;;5156819;27;20664;-59
2022/04/22 09:02:12;;;;;;;3.03;2.83;;;12.80;99.90;;;;;;5156911;27;20684;-59
2022/04/22 09:04:51;;;;;;;8.02;7.38;;;12.90;99.90;;;;;;5116001;27;20521;-59
2022/04/22 09:07:32;;;;;;;5.45;4.95;;;13.10;99.90;;;;;;5157036;27;20602;-59
2022/04/22 09:10:11;;;;;;;9.25;8.45;;;13.20;99.90;;;;;;5115056;27;21022;-59
2022/04/22 09:12:55;;;;;;;7.80;7.20;;;13.40;99.90;;;;;;5111683;27;20638;-59
2022/04/22 09:15:34;;;;;;;7.30;6.80;;;13.50;99.90;;;;;;5115917;27;21018;-59
2022/04/22 09:18:14;;;;;;;9.15;8.55;;;13.70;99.90;;;;;;5156697;27;20543;-59
2022/04/22 09:20:56;;;;;;;8.32;7.72;;;14.00;99.90;;;;;;5115204;27;20537;-58
2022/04/22 09:23:36;;;;;;;7.53;6.95;;;14.40;99.90;;;;;;5145979;27;21214;-59
2022/04/22 09:26:22;;;;;;;7.60;7.10;;;14.50;99.90;;;;;;5160632;27;20529;-59
2022/04/22 09:29:02;;;;;;;7.03;6.47;;;14.50;99.90;;;;;;5156958;27;20543;-59
2022/04/22 09:31:48;;;;;;;6.40;5.80;;;14.30;99.90;;;;;;5151975;27;20597;-59
2022/04/22 09:34:36;;;;;;;6.80;6.40;;;14.20;99.90;;;;;;5098542;27;20646;-59
2022/04/22 09:43:24;;;;;;;6.70;6.18;;;14.50;99.90;;;;;;5106082;27;20704;-59
2022/04/22 09:46:04;;;;;;;7.15;6.47;;;14.90;99.90;;;;;;5115708;27;21180;-58
2022/04/22 09:48:45;;;;;;;7.57;7.07;;;15.10;99.90;;;;;;5115159;27;20533;-59
2022/04/22 09:51:26;;;;;;;5.97;5.43;;;15.10;99.90;;;;;;5115211;27;20605;-59
2022/04/22 09:54:08;;;;;;;8.00;7.50;;;15.30;99.90;;;;;;5148339;27;21174;-58
2022/04/22 09:56:56;;;;;;;8.25;7.65;;;15.40;99.90;;;;;;5115358;27;20683;-59
2022/04/22 09:59:35;;;;;;;3.70;3.40;;;15.40;99.90;;;;;;5152585;27;21133;-59
2022/04/22 10:02:21;;;;;;;8.63;8.07;;;15.10;99.90;;;;;;5115780;27;20904;-59
2022/04/22 10:05:00;;;;;;;7.82;7.32;;;15.00;99.90;;;;;;5161155;27;20650;-59
2022/04/22 10:07:38;;;;;;;8.13;7.63;;;15.00;99.90;;;;;;5115459;27;20557;-59
2022/04/22 10:10:18;;;;;;;8.70;8.10;;;15.10;99.90;;;;;;5154885;27;20644;-59
2022/04/22 10:12:58;;;;;;;7.50;7.03;;;15.10;99.90;;;;;;5111293;27;20579;-58
2022/04/22 10:15:39;;;;;;;7.88;7.20;;;15.00;99.90;;;;;;5150836;27;20811;-59
2022/04/22 10:18:18;;;;;;;3.05;2.85;;;15.00;99.90;;;;;;5114137;27;20544;-59
2022/04/22 10:20:59;;;;;;;8.30;7.80;;;15.20;99.90;;;;;;5142297;27;20635;-59
2022/04/22 10:23:38;;;;;;;6.63;6.13;;;15.50;99.90;;;;;;5096709;27;20704;-59
2022/04/22 10:26:17;;;;;;;7.43;6.93;;;15.60;99.90;;;;;;5157216;27;20289;-58
2022/04/22 10:28:56;;;;;;;7.82;7.10;;;15.50;99.90;;;;;;5124585;27;20621;-59
2022/04/22 10:31:35;;;;;;;7.10;6.40;;;15.30;99.90;;;;;;5159645;27;20662;-59
2022/04/22 10:34:13;;;;;;;6.65;6.22;;;15.20;99.90;;;;;;5099567;27;20630;-59
2022/04/22 10:36:57;;;;;;;6.88;6.38;;;15.10;99.90;;;;;;5160713;27;20662;-59
2022/04/22 10:39:36;;;;;;;7.45;6.95;;;15.10;99.90;;;;;;5116184;27;20621;-59
2022/04/22 10:42:16;;;;;;;7.10;6.70;;;15.00;99.90;;;;;;5116153;27;20521;-59
2022/04/22 10:47:50;;;;;;;7.53;7.03;;;14.60;99.90;;;;;;5115690;27;20609;-59
2022/04/22 10:50:30;;;;;;;6.68;6.28;;;14.50;99.90;;;;;;5115223;27;20291;-59
2022/04/22 10:53:23;;;;;;;7.10;6.70;;;14.60;99.90;;;;;;5148832;27;20775;-59
2022/04/22 10:56:35;;;;;;;7.20;6.70;;;14.80;99.90;;;;;;5116494;27;20536;-59
2022/04/22 10:59:33;;;;;;;5.82;5.43;;;15.10;99.90;;;;;;5115273;27;20636;-58
2022/04/22 11:02:34;;;;;;;7.30;6.80;;;15.00;99.90;;;;;;5149243;27;20901;-59
2022/04/22 11:05:37;;;;;;;7.35;6.85;;;14.90;99.90;;;;;;5146816;27;20303;-59
2022/04/22 11:08:25;;;;;;;6.95;6.45;;;14.90;99.90;;;;;;5160284;27;21054;-59
2022/04/22 11:11:10;;;;;;;9.40;6.65;;;14.90;99.90;;;;;;5115744;27;21129;-58
2022/04/22 11:13:52;;;;;;;5.68;5.28;;;14.90;99.90;;;;;;5103547;27;20308;-59
2022/04/22 11:16:32;;;;;;;4.78;4.47;;;14.80;99.90;;;;;;5152915;27;20588;-57
2022/04/22 11:19:23;;;;;;;8.30;7.70;;;14.70;99.90;;;;;;5158870;27;20525;-58
2022/04/22 11:22:01;;;;;;;8.43;7.70;;;14.70;99.90;;;;;;5152379;27;20309;-59
2022/04/22 11:24:41;;;;;;;8.13;7.63;;;14.80;99.90;;;;;;5143214;27;20959;-59
2022/04/22 11:27:28;;;;;;;7.63;7.10;;;14.90;99.90;;;;;;5116004;27;20679;-59
2022/04/22 11:30:10;;;;;;;8.90;8.20;;;15.00;99.90;;;;;;5148074;27;20542;-58
2022/04/22 11:32:52;;;;;;;8.00;7.25;;;15.20;99.90;;;;;;5112476;27;20638;-59
2022/04/22 11:35:34;;;;;;;7.28;6.60;;;15.60;99.90;;;;;;5116122;27;20612;-59
2022/04/22 11:38:13;;;;;;;8.52;7.95;;;15.60;99.90;;;;;;5115570;27;20639;-60
2022/04/22 11:40:52;;;;;;;7.65;7.05;;;15.50;99.90;;;;;;5115982;27;20629;-58
2022/04/22 11:43:30;;;;;;;8.18;7.57;;;15.60;99.90;;;;;;5106372;27;20310;-59
2022/04/22 11:46:10;;;;;;;8.48;7.88;;;15.60;99.90;;;;;;5117103;27;20295;-59
2022/04/22 11:48:50;;;;;;;7.15;6.65;;;15.60;99.90;;;;;;5116416;27;20544;-59
2022/04/22 11:51:28;;;;;;;6.60;6.10;;;15.60;99.90;;;;;;5154394;27;20615;-59
2022/04/22 11:54:07;;;;;;;7.65;6.80;;;15.70;99.90;;;;;;5101331;27;20554;-59
2022/04/22 11:56:47;;;;;;;7.45;6.93;;;15.70;99.90;;;;;;5116296;27;20609;-59
2022/04/22 11:59:26;;;;;;;8.43;7.53;;;15.90;99.90;;;;;;5115558;27;20952;-59
2022/04/22 12:08:05;;;;;;;7.57;7.07;;;16.00;99.90;;;;;;5141458;27;21210;-59
2022/04/22 12:10:46;;;;;;;8.10;7.60;;;16.00;99.90;;;;;;5150016;27;20610;-59
2022/04/22 12:13:28;;;;;;;8.13;7.53;;;15.80;99.90;;;;;;5149816;27;20987;-59
2022/04/22 12:16:07;;;;;;;8.07;7.28;;;15.90;99.90;;;;;;5116254;27;20649;-59
2022/04/22 12:18:48;;;;;;;4.20;3.90;;;15.80;99.90;;;;;;5116153;27;20626;-59
2022/04/22 12:21:27;;;;;;;8.18;7.57;;;16.10;99.90;;;;;;5115924;27;20834;-59
2022/04/22 12:24:07;;;;;;;6.13;5.03;;;16.40;99.90;;;;;;5101014;27;20559;-59
2022/04/22 12:26:46;;;;;;;8.90;8.30;;;16.50;99.90;;;;;;5115734;27;20617;-59
2022/04/22 12:29:26;;;;;;;7.85;7.30;;;16.40;99.90;;;;;;5115123;27;20637;-60
2022/04/22 12:32:04;;;;;;;8.85;8.25;;;16.40;99.90;;;;;;5115656;27;20374;-59
2022/04/22 12:34:44;;;;;;;8.80;8.10;;;16.40;99.90;;;;;;5095730;27;20634;-59
2022/04/22 12:37:24;;;;;;;9.07;8.40;;;16.30;99.90;;;;;;5115714;27;20617;-59
2022/04/22 12:40:10;;;;;;;9.57;8.98;;;16.20;99.90;;;;;;5115659;27;20540;-59
2022/04/22 12:42:48;;;;;;;9.32;8.73;;;16.10;99.90;;;;;;5157836;27;20965;-58
2022/04/22 12:54:17;;;;;;;9.02;8.32;;;16.00;99.90;;;;;;5098242;27;20289;-59
2022/04/22 12:56:55;;;;;;;8.13;7.43;;;16.00;99.90;;;;;;5114701;27;20613;-59
2022/04/22 12:59:44;;;;;;;8.07;7.45;;;15.80;99.90;;;;;;5156207;27;20541;-59
2022/04/22 13:02:30;;;;;;;10.55;9.57;;;15.20;99.90;;;;;;5116341;27;20538;-59
2022/04/22 13:05:16;;;;;;;10.15;9.25;;;15.40;99.90;;;;;;5160248;27;21013;-59
2022/04/22 13:07:54;;;;;;;10.32;9.63;;;15.90;99.90;;;;;;5114751;27;20613;-60
2022/04/22 13:10:32;;;;;;;9.60;8.73;;;16.00;99.90;;;;;;5115003;27;20819;-59
2022/04/22 13:13:11;;;;;;;9.93;9.13;;;16.00;99.90;;;;;;5148096;27;20629;-59
2022/04/22 13:15:50;;;;;;;11.48;10.38;;;15.90;99.90;;;;;;5140168;27;20621;-59
2022/04/22 13:18:28;;;;;;;9.95;9.25;;;15.80;99.90;;;;;;5115403;27;20666;-59
2022/04/22 13:21:06;;;;;;;10.95;9.95;;;15.70;99.90;;;;;;5155997;27;20952;-59
2022/04/22 13:23:45;;;;;;;8.82;8.13;;;15.80;99.90;;;;;;5103448;27;20931;-59
2022/04/22 13:26:25;;;;;;;11.30;10.30;;;16.10;99.90;;;;;;5115776;27;20663;-59
2022/04/22 13:29:06;;;;;;;10.10;9.43;;;16.00;99.90;;;;;;5139539;27;20563;-58
2022/04/22 13:31:44;;;;;;;11.57;10.43;;;15.80;99.90;;;;;;5115974;27;20601;-59
2022/04/22 13:34:22;;;;;;;10.23;9.15;;;15.80;99.90;;;;;;5153968;27;20607;-59
2022/04/22 13:37:01;;;;;;;11.07;10.15;;;15.90;99.90;;;;;;5157022;27;20515;-59
2022/04/22 13:39:39;;;;;;;12.05;11.05;;;16.00;99.90;;;;;;5115368;27;20980;-59
2022/04/22 13:42:18;;;;;;;11.07;10.27;;;16.20;99.90;;;;;;5116324;27;20695;-59
2022/04/22 13:53:44;;;;;;;11.80;11.10;;;14.90;99.90;;;;;;5103905;27;20763;-59
2022/04/22 13:56:23;;;;;;;6.93;6.30;;;14.90;99.90;;;;;;5116088;27;20532;-59
2022/04/22 13:59:01;;;;;;;9.13;8.35;;;14.70;99.90;;;;;;5115505;27;20663;-59
2022/04/22 14:01:39;;;;;;;13.32;12.25;;;14.90;99.90;;;;;;5157260;27;20614;-59
2022/04/22 14:04:17;;;;;;;11.07;9.98;;;15.20;99.90;;;;;;5103081;27;21097;-59
2022/04/22 14:06:56;;;;;;;10.63;9.82;;;15.20;99.90;;;;;;5116048;27;20954;-59
2022/04/22 14:09:35;;;;;;;13.05;11.90;;;15.30;99.90;;;;;;5115257;27;20616;-59
2022/04/22 14:12:13;;;;;;;12.88;11.88;;;15.20;99.90;;;;;;5148612;27;20987;-59
2022/04/22 14:14:52;;;;;;;12.98;12.15;;;15.10;99.90;;;;;;5113568;27;20601;-59
2022/04/22 14:17:30;;;;;;;12.07;11.02;;;15.10;99.90;;;;;;5115571;27;20656;-59
2022/04/22 14:20:10;;;;;;;12.43;11.38;;;15.20;99.90;;;;;;5151116;27;20611;-59
2022/04/22 14:22:48;;;;;;;12.43;11.63;;;15.20;99.90;;;;;;5139923;27;20548;-59
2022/04/22 14:25:26;;;;;;;12.93;12.02;;;14.70;99.90;;;;;;5147866;27;20546;-58
2022/04/22 14:28:05;;;;;;;11.68;10.88;;;14.50;99.90;;;;;;5160280;27;20613;-59
2022/04/22 14:30:44;;;;;;;13.85;12.90;;;14.60;99.90;;;;;;5159610;27;20952;-59
2022/04/22 14:33:23;;;;;;;11.85;11.05;;;14.80;99.90;;;;;;5104375;27;20536;-57
2022/04/22 14:36:03;;;;;;;12.10;10.93;;;15.00;99.90;;;;;;5149983;27;20623;-59
2022/04/22 14:38:42;;;;;;;11.63;10.82;;;15.00;99.90;;;;;;5107984;27;20680;-59
2022/04/22 14:41:32;;;;;;;11.70;10.32;;;15.20;99.90;;;;;;5113391;27;20779;-59
2022/04/22 14:44:11;;;;;;;11.98;11.18;;;15.40;99.90;;;;;;5098244;27;20641;-59
2022/04/22 14:46:49;;;;;;;10.88;9.88;;;15.40;99.90;;;;;;5113595;27;21182;-59
2022/04/22 14:49:27;;;;;;;12.50;11.60;;;15.00;99.90;;;;;;5144780;27;20538;-59
2022/04/22 14:52:06;;;;;;;11.77;10.93;;;14.80;99.90;;;;;;5144458;27;20527;-59
2022/04/22 14:54:45;;;;;;;12.05;11.15;;;14.70;99.90;;;;;;5130332;27;20607;-59
2022/04/22 14:57:23;;;;;;;11.70;10.65;;;14.40;99.90;;;;;;5143563;27;20606;-59
2022/04/22 15:00:02;;;;;;;9.00;8.40;;;14.20;99.90;;;;;;5114340;27;20899;-59